Time;durP1;ratioP1;P1;durP2;ratioP2;P2;SDS_P1;SDS_P2;PMS_P1;PMS_P2;Temp;Humidity;BMP_temperature;BMP_pressure;BME280_temperature;BME280_humidity;BME280_pressure;Samples;Min_cycle;Max_cycle;Signal;HPM_P1;HPM_P2
2021/12/25 00:00:23;;;;;;;367.40;261.23;;;;;;;24.22;39.05;99841.47;5006636;28;20056;-43
2021/12/25 00:02:52;;;;;;;351.50;252.93;;;;;;;24.22;39.00;99840.59;5006787;28;20200;-43
2021/12/25 00:05:21;;;;;;;369.60;265.10;;;;;;;24.23;39.40;99843.22;5006722;28;20037;-43
2021/12/25 00:07:50;;;;;;;364.73;262.50;;;;;;;24.25;39.54;99848.44;5006518;28;20481;-43
2021/12/25 00:10:19;;;;;;;379.52;270.88;;;;;;;24.28;39.32;99833.56;5005767;28;20038;-43
2021/12/25 00:12:49;;;;;;;390.73;278.85;;;;;;;24.24;39.43;99847.53;5006200;28;20038;-43
2021/12/25 00:15:18;;;;;;;387.30;271.13;;;;;;;24.24;39.30;99846.69;5006160;28;20045;-43
2021/12/25 00:17:47;;;;;;;361.25;265.27;;;;;;;24.21;39.21;99837.09;5006253;28;20260;-43
2021/12/25 00:20:16;;;;;;;379.30;275.65;;;;;;;24.31;39.22;99842.28;5006398;28;20048;-43
2021/12/25 00:22:45;;;;;;;381.30;269.30;;;;;;;24.23;39.48;99840.59;5006287;28;20022;-43
2021/12/25 00:25:14;;;;;;;380.13;269.85;;;;;;;24.24;39.24;99841.44;5006145;28;20029;-44
2021/12/25 00:30:31;;;;;;;378.95;265.77;;;;;;;24.19;39.43;99836.25;5006258;28;20373;-44
2021/12/25 00:33:05;;;;;;;377.92;272.77;;;;;;;24.21;39.74;99830.97;5006524;28;20081;-44
2021/12/25 00:35:34;;;;;;;377.05;272.13;;;;;;;24.18;39.36;99833.63;5005944;28;20041;-43
2021/12/25 00:38:05;;;;;;;373.20;267.05;;;;;;;24.15;39.31;99821.41;5006156;28;20038;-44
2021/12/25 00:40:33;;;;;;;367.33;265.98;;;;;;;24.18;39.69;99829.25;5006143;28;20026;-43
2021/12/25 00:43:01;;;;;;;369.52;266.55;;;;;;;24.24;39.39;99821.34;5005980;28;20069;-43
2021/12/25 00:45:30;;;;;;;372.05;269.98;;;;;;;24.22;39.51;99819.63;5005660;28;20052;-43
2021/12/25 00:47:59;;;;;;;368.35;262.90;;;;;;;24.18;39.53;99831.88;5005477;28;20072;-43
2021/12/25 00:50:27;;;;;;;373.52;264.40;;;;;;;24.30;39.23;99812.59;5005380;28;20422;-43
2021/12/25 00:52:56;;;;;;;349.02;257.58;;;;;;;24.14;39.18;99822.28;5005470;28;20096;-44
2021/12/25 00:55:26;;;;;;;372.88;269.33;;;;;;;24.16;39.50;99815.28;5005687;28;20060;-42
2021/12/25 00:57:55;;;;;;;370.85;265.65;;;;;;;24.15;39.32;99816.16;5005309;28;20056;-43
2021/12/25 01:00:23;;;;;;;377.88;265.10;;;;;;;24.14;39.81;99819.66;5005736;28;20025;-43
2021/12/25 01:02:51;;;;;;;368.05;263.77;;;;;;;24.17;39.20;99814.41;5005166;28;20308;-43
2021/12/25 01:05:20;;;;;;;377.75;266.70;;;;;;;24.16;39.54;99817.06;5003816;28;20479;-43
2021/12/25 01:07:49;;;;;;;363.90;262.27;;;;;;;24.21;39.65;99810.00;5005420;28;20033;-43
2021/12/25 01:10:19;;;;;;;358.00;265.63;;;;;;;24.19;39.29;99810.03;5004968;28;20255;-43
2021/12/25 01:13:33;;;;;;;372.77;263.08;;;;;;;24.15;39.65;99807.44;5005332;28;20224;-43
2021/12/25 01:16:17;;;;;;;365.17;266.73;;;;;;;24.17;39.46;99810.91;5001826;28;20050;-44
2021/12/25 01:19:02;;;;;;;369.27;267.13;;;;;;;24.21;39.37;99810.00;5004953;28;20030;-44
2021/12/25 01:35:20;;;;;;;366.05;262.98;;;;;;;24.18;39.35;99807.41;5000336;28;20093;-42
2021/12/25 01:48:20;;;;;;;361.67;259.95;;;;;;;24.11;39.58;99796.09;5003988;28;20177;-44
2021/12/25 01:50:49;;;;;;;365.85;262.52;;;;;;;24.14;39.79;99803.94;5004543;28;20034;-43
2021/12/25 01:53:18;;;;;;;371.67;262.55;;;;;;;24.14;39.86;99800.47;5004218;28;20124;-42
2021/12/25 01:55:46;;;;;;;368.50;266.52;;;;;;;24.14;39.57;99798.69;5004327;28;20248;-44
2021/12/25 01:58:15;;;;;;;376.08;264.95;;;;;;;24.16;39.30;99796.94;5004526;28;20167;-43
2021/12/25 02:00:47;;;;;;;376.88;267.02;;;;;;;24.06;39.50;99800.53;5004170;28;20064;-43
2021/12/25 02:03:17;;;;;;;367.35;267.92;;;;;;;24.11;39.75;99798.72;5004242;28;20046;-43
2021/12/25 02:05:48;;;;;;;379.15;265.77;;;;;;;24.15;39.95;99797.81;5004732;28;20447;-44
2021/12/25 02:08:17;;;;;;;373.02;264.02;;;;;;;24.19;39.58;99796.03;5004300;28;20049;-43
2021/12/25 02:10:46;;;;;;;367.73;264.50;;;;;;;24.24;39.22;99803.00;5003881;28;20033;-43
2021/12/25 02:13:15;;;;;;;366.27;264.02;;;;;;;24.19;39.51;99790.81;5004261;28;20049;-42
2021/12/25 02:15:47;;;;;;;355.90;259.58;;;;;;;24.20;39.24;99796.06;5004032;28;20033;-44
2021/12/25 02:21:12;;;;;;;384.30;269.55;;;;;;;24.16;39.68;99791.72;4999952;28;20038;-44
2021/12/25 02:23:41;;;;;;;362.08;257.05;;;;;;;24.19;39.20;99790.81;5002744;28;20205;-44
2021/12/25 02:26:10;;;;;;;363.00;262.85;;;;;;;24.18;39.37;99794.31;5004121;28;20107;-45
2021/12/25 02:28:39;;;;;;;376.50;267.30;;;;;;;24.20;39.52;99795.16;5004033;28;20092;-44
2021/12/25 02:31:10;;;;;;;371.45;264.65;;;;;;;24.17;39.42;99793.44;5003933;28;20030;-44
2021/12/25 02:33:39;;;;;;;375.10;265.08;;;;;;;24.16;39.33;99789.09;5004001;28;20030;-44
2021/12/25 02:36:09;;;;;;;372.77;265.33;;;;;;;24.17;39.47;99797.81;5003795;28;20041;-44
2021/12/25 02:38:38;;;;;;;380.27;270.98;;;;;;;24.10;39.56;99791.72;5004354;28;20064;-44
2021/12/25 02:41:07;;;;;;;361.30;263.52;;;;;;;24.10;39.84;99792.63;5002035;28;20471;-44
2021/12/25 02:43:38;;;;;;;375.27;265.52;;;;;;;24.07;39.70;99786.53;5003476;28;20040;-45
2021/12/25 02:46:07;;;;;;;363.10;258.95;;;;;;;24.10;39.87;99791.72;5003489;28;20057;-44
2021/12/25 02:48:37;;;;;;;365.15;259.63;;;;;;;24.07;39.92;99787.41;5003616;28;20041;-44
2021/12/25 02:51:06;;;;;;;372.15;265.20;;;;;;;24.12;39.67;99789.97;5003248;28;20021;-44
2021/12/25 02:53:36;;;;;;;371.15;264.73;;;;;;;24.23;39.75;99792.53;5003339;28;20037;-45
2021/12/25 02:56:05;;;;;;;363.20;263.73;;;;;;;24.20;39.69;99787.31;5003148;28;20026;-44
2021/12/25 02:58:34;;;;;;;364.48;259.92;;;;;;;24.13;39.91;99791.72;5002251;28;20083;-43
2021/12/25 03:01:08;;;;;;;365.08;260.67;;;;;;;24.04;40.07;99784.78;5003565;28;20092;-44
2021/12/25 03:03:36;;;;;;;354.83;259.20;;;;;;;24.08;39.70;99786.50;5003579;28;20033;-44
2021/12/25 03:06:06;;;;;;;366.50;264.98;;;;;;;24.12;39.69;99779.50;5003366;28;20124;-45
2021/12/25 03:08:35;;;;;;;386.30;269.42;;;;;;;24.16;39.37;99781.22;5003096;28;20030;-44
2021/12/25 03:11:07;;;;;;;366.08;264.58;;;;;;;24.15;39.73;99794.34;5003505;28;20116;-44
2021/12/25 03:13:44;;;;;;;385.05;267.80;;;;;;;24.16;39.69;99790.84;5003466;28;20029;-44
2021/12/25 03:16:14;;;;;;;371.40;266.23;;;;;;;24.11;39.94;99788.25;5003505;28;20037;-45
2021/12/25 03:18:50;;;;;;;368.20;258.88;;;;;;;24.07;39.78;99782.16;5003429;28;20026;-44
2021/12/25 03:21:19;;;;;;;355.55;259.42;;;;;;;24.12;39.80;99785.63;5003723;28;20044;-45
2021/12/25 03:23:52;;;;;;;361.90;260.30;;;;;;;24.09;39.71;99795.22;5003779;28;20030;-44
2021/12/25 03:26:22;;;;;;;362.75;257.98;;;;;;;24.07;39.57;99782.16;5003667;28;20120;-44
2021/12/25 03:28:53;;;;;;;373.60;261.77;;;;;;;24.06;39.74;99783.03;5003702;28;20049;-43
2021/12/25 03:31:23;;;;;;;368.77;260.92;;;;;;;24.11;39.97;99783.88;5003104;28;20088;-45
2021/12/25 03:33:55;;;;;;;355.20;260.13;;;;;;;24.06;39.79;99779.56;5003520;28;20030;-44
2021/12/25 03:36:27;;;;;;;371.02;264.23;;;;;;;24.02;39.92;99773.44;5002891;28;20096;-44
2021/12/25 03:38:56;;;;;;;364.58;262.95;;;;;;;24.08;39.84;99770.78;5003023;28;20561;-44
2021/12/25 03:41:25;;;;;;;362.88;262.98;;;;;;;24.12;40.06;99782.13;5001348;28;20076;-44
2021/12/25 03:43:53;;;;;;;357.08;260.80;;;;;;;24.11;39.69;99775.13;5002745;28;20057;-45
2021/12/25 03:46:21;;;;;;;366.10;264.92;;;;;;;24.03;40.02;99771.72;5006449;28;20038;-44
2021/12/25 03:57:53;;;;;;;380.73;267.52;;;;;;;24.02;40.02;99769.97;5006145;28;20045;-44
2021/12/25 03:59:59;;;;;;;368.50;262.15;;;;;;;24.12;39.59;99769.03;5005864;28;20042;-44
2021/12/25 04:02:34;;;;;;;363.45;263.08;;;;;;;24.07;40.05;99765.59;5006275;28;20077;-45
2021/12/25 04:05:14;;;;;;;362.13;262.73;;;;;;;24.09;39.55;99769.03;5006699;28;20033;-45
2021/12/25 04:08:30;;;;;;;381.38;267.70;;;;;;;24.06;40.14;99772.56;5006612;28;20399;-44
2021/12/25 04:10:32;;;;;;;372.65;267.00;;;;;;;24.04;39.85;99778.69;5002612;28;20034;-44
2021/12/25 04:13:07;;;;;;;359.48;263.20;;;;;;;24.07;40.13;99774.28;5004981;28;20112;-43
2021/12/25 04:15:35;;;;;;;360.33;263.15;;;;;;;24.09;39.67;99780.41;5006407;28;20030;-44
2021/12/25 04:18:05;;;;;;;375.98;267.33;;;;;;;24.07;40.06;99770.81;5006389;28;20034;-44
2021/12/25 04:20:33;;;;;;;380.17;271.88;;;;;;;24.05;39.96;99770.81;5006453;28;20502;-44
2021/12/25 04:23:10;;;;;;;373.48;266.52;;;;;;;24.03;39.76;99767.31;5006325;28;20033;-44
2021/12/25 04:25:40;;;;;;;357.77;258.58;;;;;;;24.05;39.71;99769.97;5006083;28;20018;-44
2021/12/25 04:28:17;;;;;;;379.50;270.40;;;;;;;24.05;39.88;99765.56;5006345;28;20562;-44
2021/12/25 04:31:05;;;;;;;351.95;256.17;;;;;;;24.08;39.51;99765.56;5005911;28;20414;-44
2021/12/25 04:47:56;;;;;;;358.80;258.90;;;;;;;24.06;39.73;99764.69;5005146;28;20065;-44
2021/12/25 05:04:27;;;;;;;368.85;264.02;;;;;;;24.02;39.67;99773.44;5004397;28;20084;-44
2021/12/25 05:06:59;;;;;;;363.55;259.63;;;;;;;23.98;39.82;99771.75;5005523;28;20038;-44
2021/12/25 05:09:27;;;;;;;366.00;264.98;;;;;;;23.95;40.30;99772.56;5005210;28;20030;-44
2021/12/25 05:11:56;;;;;;;361.27;258.42;;;;;;;23.99;40.14;99767.38;5005612;28;20033;-44
2021/12/25 05:14:25;;;;;;;360.23;260.38;;;;;;;23.99;40.15;99772.59;5005633;28;20391;-44
2021/12/25 05:16:54;;;;;;;363.92;259.63;;;;;;;24.00;40.00;99769.97;5005423;28;20036;-44
2021/12/25 05:19:24;;;;;;;373.33;262.25;;;;;;;23.94;40.34;99765.59;5005320;28;20026;-44
2021/12/25 05:21:54;;;;;;;359.50;263.17;;;;;;;23.97;40.12;99775.25;5005256;28;20675;-44
2021/12/25 05:24:22;;;;;;;360.95;261.38;;;;;;;24.00;39.78;99769.97;5004958;28;20037;-44
2021/12/25 05:26:56;;;;;;;359.60;256.85;;;;;;;23.91;39.98;99768.22;5005100;28;20060;-44
2021/12/25 05:29:31;;;;;;;347.83;253.55;;;;;;;23.96;39.92;99768.22;5004939;28;20029;-44
2021/12/25 05:31:59;;;;;;;367.65;261.00;;;;;;;23.99;40.07;99770.88;5005244;28;20030;-44
2021/12/25 05:34:28;;;;;;;360.25;256.95;;;;;;;24.00;39.94;99772.56;5005346;28;20037;-45
2021/12/25 05:36:57;;;;;;;343.20;256.55;;;;;;;23.89;40.10;99764.78;5004927;28;20049;-45
2021/12/25 05:39:25;;;;;;;352.23;249.20;;;;;;;23.91;39.73;99764.75;5004687;28;20034;-44
2021/12/25 05:41:53;;;;;;;353.23;253.77;;;;;;;23.95;40.25;99771.72;5004762;28;20064;-44
2021/12/25 05:44:22;;;;;;;343.42;246.10;;;;;;;23.98;40.19;99776.97;5004006;28;20026;-44
2021/12/25 05:46:53;;;;;;;334.58;245.88;;;;;;;23.93;40.11;99778.72;5004552;28;20096;-45
2021/12/25 05:49:21;;;;;;;353.40;248.00;;;;;;;23.93;40.00;99778.72;5004517;28;20030;-44
2021/12/25 05:51:50;;;;;;;349.95;252.15;;;;;;;23.91;39.85;99772.63;5004751;28;20042;-45
2021/12/25 05:54:19;;;;;;;342.73;247.13;;;;;;;23.96;39.96;99776.09;5002926;28;20030;-44
2021/12/25 05:56:48;;;;;;;351.17;250.60;;;;;;;24.00;40.19;99777.81;5003356;28;20065;-44
2021/12/25 05:59:17;;;;;;;342.80;249.93;;;;;;;23.95;39.81;99775.19;5004370;28;20022;-44
2021/12/25 06:01:48;;;;;;;349.00;254.30;;;;;;;23.91;39.87;99777.84;5002952;28;20499;-44
2021/12/25 06:04:16;;;;;;;356.77;254.55;;;;;;;23.93;40.21;99776.09;5004447;28;20041;-44
2021/12/25 06:06:46;;;;;;;365.58;252.80;;;;;;;23.96;40.05;99776.09;5004412;28;20112;-44
2021/12/25 06:09:14;;;;;;;355.35;253.63;;;;;;;23.91;40.31;99770.84;5003710;28;20037;-44
2021/12/25 06:11:45;;;;;;;345.42;252.93;;;;;;;23.96;39.77;99770.84;5003061;28;20071;-44
2021/12/25 06:14:21;;;;;;;361.83;254.07;;;;;;;23.95;40.19;99771.72;5004055;28;20038;-44
2021/12/25 06:16:51;;;;;;;371.38;259.95;;;;;;;23.85;40.25;99763.03;5002407;28;20045;-44
2021/12/25 06:19:20;;;;;;;349.42;253.77;;;;;;;23.92;40.21;99771.75;5006745;28;20026;-44
2021/12/25 06:21:48;;;;;;;376.58;266.25;;;;;;;23.88;40.51;99772.63;5004673;28;20037;-44
2021/12/25 06:24:17;;;;;;;370.88;257.67;;;;;;;23.85;40.03;99768.28;5004257;28;20102;-44
2021/12/25 06:26:46;;;;;;;368.00;262.88;;;;;;;23.86;40.29;99763.91;5002817;28;20034;-43
2021/12/25 06:29:19;;;;;;;368.33;261.55;;;;;;;23.90;40.26;99768.25;5004327;28;20036;-43
2021/12/25 06:31:53;;;;;;;355.10;256.30;;;;;;;23.94;40.13;99762.97;5004072;28;20029;-43
2021/12/25 06:34:21;;;;;;;362.73;258.60;;;;;;;23.99;40.01;99768.25;5004212;28;20380;-43
2021/12/25 06:36:51;;;;;;;354.35;255.65;;;;;;;23.95;39.93;99769.97;5003945;28;20377;-44
2021/12/25 06:39:19;;;;;;;364.48;258.67;;;;;;;23.97;39.82;99770.00;5004160;28;20083;-44
2021/12/25 06:41:49;;;;;;;359.25;254.20;;;;;;;23.85;40.45;99776.16;5003950;28;20034;-44
2021/12/25 06:44:20;;;;;;;361.27;262.23;;;;;;;23.89;40.10;99779.59;5004054;28;20483;-44
2021/12/25 06:46:48;;;;;;;365.45;258.60;;;;;;;23.93;40.40;99768.25;5003872;28;20447;-43
2021/12/25 06:49:17;;;;;;;354.98;257.70;;;;;;;23.92;40.04;99767.34;5003808;28;20056;-43
2021/12/25 06:51:46;;;;;;;353.10;255.00;;;;;;;23.91;40.38;99767.38;5003938;28;20054;-43
2021/12/25 06:54:15;;;;;;;364.10;256.48;;;;;;;23.94;40.27;99768.22;5002017;28;20053;-43
2021/12/25 06:56:44;;;;;;;368.35;260.83;;;;;;;23.87;40.29;99769.16;5001966;28;20459;-43
2021/12/25 06:59:14;;;;;;;352.00;257.27;;;;;;;23.88;39.97;99772.63;5003409;28;20037;-43
2021/12/25 07:01:43;;;;;;;354.50;255.20;;;;;;;23.84;40.31;99777.03;5003352;28;20491;-43
2021/12/25 07:04:11;;;;;;;367.85;262.35;;;;;;;23.70;40.15;99756.13;5003637;28;20025;-43
2021/12/25 07:06:40;;;;;;;361.42;258.02;;;;;;;23.87;40.26;99774.38;5003650;28;20096;-43
2021/12/25 07:09:09;;;;;;;357.15;253.10;;;;;;;23.80;40.45;99777.91;5003677;28;20616;-43
2021/12/25 07:11:38;;;;;;;359.95;255.27;;;;;;;23.83;40.50;99784.00;5003250;28;20485;-44
2021/12/25 07:14:09;;;;;;;348.20;249.98;;;;;;;23.82;40.12;99786.63;5003128;28;20088;-44
2021/12/25 07:16:37;;;;;;;341.13;249.63;;;;;;;23.76;40.28;99781.41;5003454;28;20033;-44
2021/12/25 07:19:06;;;;;;;343.98;249.02;;;;;;;23.79;40.13;99779.66;5007281;28;20068;-44
2021/12/25 07:21:34;;;;;;;342.38;248.50;;;;;;;23.79;40.20;99779.66;5007205;28;20033;-44
2021/12/25 07:24:03;;;;;;;359.35;254.98;;;;;;;23.86;39.96;99790.09;5007491;28;20467;-44
2021/12/25 07:26:32;;;;;;;353.60;254.18;;;;;;;23.83;40.52;99786.59;5007357;28;20732;-44
2021/12/25 07:29:00;;;;;;;357.67;255.30;;;;;;;23.84;40.44;99792.72;5005981;28;20040;-45
2021/12/25 07:31:28;;;;;;;353.38;250.57;;;;;;;23.76;40.15;99786.66;5007292;28;20038;-44
2021/12/25 07:33:57;;;;;;;362.63;254.43;;;;;;;23.86;40.08;99790.09;5007166;28;20475;-44
2021/12/25 07:36:26;;;;;;;330.40;233.18;;;;;;;23.84;39.98;99790.13;5006989;28;20084;-45
2021/12/25 07:38:56;;;;;;;323.63;231.48;;;;;;;23.66;40.05;99757.03;5005665;28;20488;-44
2021/12/25 07:41:24;;;;;;;342.60;240.05;;;;;;;23.95;39.73;99788.28;5006962;28;20034;-44
2021/12/25 07:43:53;;;;;;;322.20;227.07;;;;;;;23.88;40.05;99786.59;5007049;28;20578;-44
2021/12/25 07:46:22;;;;;;;328.63;231.38;;;;;;;23.83;39.85;99784.00;5005537;28;20033;-43
2021/12/25 07:48:51;;;;;;;310.17;221.40;;;;;;;23.82;40.21;99784.00;5006989;28;20487;-43
2021/12/25 07:51:19;;;;;;;310.35;222.48;;;;;;;23.71;40.39;99770.97;5006817;28;20402;-43
2021/12/25 07:53:47;;;;;;;318.95;226.25;;;;;;;23.73;40.38;99787.53;5006647;28;20091;-44
2021/12/25 07:56:16;;;;;;;316.45;229.77;;;;;;;23.79;40.47;99789.25;5005514;28;20034;-44
2021/12/25 07:58:45;;;;;;;323.60;228.57;;;;;;;23.80;40.29;99786.66;5007384;28;20029;-45
2021/12/25 08:01:13;;;;;;;315.15;225.07;;;;;;;23.82;40.10;99792.75;5006501;28;20054;-44
2021/12/25 08:03:41;;;;;;;322.55;226.32;;;;;;;23.89;40.16;99787.47;5006663;28;20029;-44
2021/12/25 08:06:10;;;;;;;329.52;231.35;;;;;;;23.85;40.09;99785.72;5006871;28;20022;-44
2021/12/25 08:08:38;;;;;;;329.73;229.88;;;;;;;23.88;40.31;99788.34;5006819;28;20164;-44
2021/12/25 08:11:07;;;;;;;318.70;225.35;;;;;;;23.89;40.07;99790.09;5006284;28;20506;-43
2021/12/25 08:13:35;;;;;;;322.45;225.30;;;;;;;23.86;40.59;99792.72;5006351;28;20184;-44
2021/12/25 08:16:03;;;;;;;319.98;220.57;;;;;;;23.80;40.99;99783.13;5006404;28;20034;-43
2021/12/25 08:18:32;;;;;;;322.58;224.27;;;;;;;23.91;40.37;99789.19;5006642;28;20395;-43
2021/12/25 08:21:04;;;;;;;328.90;225.18;;;;;;;23.92;40.53;99790.06;5006575;28;20026;-44
2021/12/25 08:23:33;;;;;;;323.58;226.93;;;;;;;23.96;40.14;99791.81;5006500;28;20033;-44
2021/12/25 08:26:02;;;;;;;329.55;227.73;;;;;;;23.97;40.66;99801.44;5006406;28;20076;-45
2021/12/25 08:28:31;;;;;;;333.10;217.55;;;;;;;23.97;40.57;99791.81;5006338;28;20403;-43
2021/12/25 08:30:59;;;;;;;315.17;218.80;;;;;;;23.99;40.50;99791.81;5004561;28;20399;-43
2021/12/25 08:33:28;;;;;;;312.88;217.77;;;;;;;23.99;40.54;99799.69;5005904;28;20081;-43
2021/12/25 08:35:57;;;;;;;312.58;219.23;;;;;;;24.04;40.64;99802.28;5006326;28;20021;-43
2021/12/25 08:38:26;;;;;;;301.63;209.40;;;;;;;24.08;40.11;99804.84;5005644;28;20446;-43
2021/12/25 08:40:56;;;;;;;307.35;206.77;;;;;;;24.06;40.46;99795.28;5004876;28;20125;-43
2021/12/25 08:43:25;;;;;;;315.55;214.02;;;;;;;24.05;40.47;99794.38;5006100;28;20033;-44
2021/12/25 08:46:17;;;;;;;295.23;204.63;;;;;;;24.04;40.11;99795.28;5006387;28;20101;-43
2021/12/25 08:48:42;;;;;;;299.92;212.07;;;;;;;24.10;40.54;99795.25;5004317;28;20034;-43
2021/12/25 08:51:11;;;;;;;297.48;205.20;;;;;;;24.04;40.54;99795.28;5005147;28;20065;-43
2021/12/25 08:53:39;;;;;;;312.67;208.98;;;;;;;24.07;40.63;99800.50;5005723;28;20117;-43
2021/12/25 08:56:08;;;;;;;296.50;207.25;;;;;;;24.06;40.16;99801.38;5004184;28;20030;-43
2021/12/25 08:58:37;;;;;;;301.90;207.13;;;;;;;24.04;40.41;99808.38;5005290;28;20260;-43
2021/12/25 09:01:07;;;;;;;286.48;203.50;;;;;;;24.04;40.38;99808.38;5004985;28;20041;-45
2021/12/25 09:03:36;;;;;;;295.67;198.30;;;;;;;24.05;40.23;99801.41;5009474;28;20037;-44
2021/12/25 09:06:05;;;;;;;307.38;205.88;;;;;;;24.04;40.53;99797.88;5006241;28;20037;-44
2021/12/25 09:08:34;;;;;;;293.48;201.48;;;;;;;24.03;40.34;99811.00;5004281;28;20041;-43
2021/12/25 09:11:03;;;;;;;287.88;200.40;;;;;;;24.00;40.81;99808.41;5005337;28;20108;-44
2021/12/25 09:13:33;;;;;;;303.05;205.93;;;;;;;24.04;40.47;99803.13;5005328;28;20052;-43
2021/12/25 09:16:01;;;;;;;294.20;203.70;;;;;;;24.09;40.45;99809.22;5003954;28;20034;-44
2021/12/25 09:18:30;;;;;;;304.33;203.55;;;;;;;24.06;40.57;99811.84;5005366;28;20099;-44
2021/12/25 09:20:58;;;;;;;298.60;201.82;;;;;;;24.03;40.28;99808.38;5005371;28;20087;-45
2021/12/25 09:23:27;;;;;;;307.55;206.02;;;;;;;24.09;40.61;99824.94;5005057;28;20124;-44
2021/12/25 09:25:55;;;;;;;300.42;204.82;;;;;;;24.08;40.67;99820.56;5005064;28;20041;-45
2021/12/25 09:28:24;;;;;;;298.88;206.05;;;;;;;24.07;40.64;99823.22;5005297;28;20022;-44
2021/12/25 09:30:52;;;;;;;300.95;203.55;;;;;;;24.05;40.63;99825.81;5009016;28;20148;-44
2021/12/25 09:33:21;;;;;;;295.17;201.25;;;;;;;24.07;40.21;99826.69;5005627;28;20034;-44
2021/12/25 09:35:50;;;;;;;298.50;203.05;;;;;;;23.93;40.75;99815.38;5005003;28;20080;-44
2021/12/25 09:38:18;;;;;;;288.00;203.18;;;;;;;24.00;40.64;99827.59;5005009;28;20526;-44
2021/12/25 09:40:47;;;;;;;293.20;201.02;;;;;;;24.03;40.79;99826.72;5004972;28;20034;-44
2021/12/25 09:43:18;;;;;;;291.90;201.25;;;;;;;24.07;40.82;99825.84;5004213;28;20049;-45
2021/12/25 09:45:47;;;;;;;295.98;200.75;;;;;;;24.01;40.33;99813.63;5005416;28;20076;-45
2021/12/25 09:48:16;;;;;;;287.75;198.90;;;;;;;24.07;40.58;99829.31;5005006;28;20133;-45
2021/12/25 09:50:44;;;;;;;287.85;195.00;;;;;;;24.07;40.77;99833.69;5004811;28;20030;-44
2021/12/25 09:53:13;;;;;;;287.52;191.77;;;;;;;24.01;40.53;99837.19;5004122;28;20121;-45
2021/12/25 09:55:42;;;;;;;263.83;186.10;;;;;;;24.01;40.44;99831.94;5004550;28;20038;-45
2021/12/25 09:58:09;;;;;;;272.55;188.05;;;;;;;24.08;40.36;99840.66;5004606;28;20369;-45
2021/12/25 10:00:42;;;;;;;278.17;190.93;;;;;;;24.08;40.23;99831.06;5004254;28;20055;-43
2021/12/25 10:03:10;;;;;;;265.83;185.65;;;;;;;24.12;40.20;99839.75;5003109;28;20030;-44
2021/12/25 10:05:41;;;;;;;282.40;189.35;;;;;;;24.15;40.35;99831.88;5002797;28;20125;-43
2021/12/25 10:08:12;;;;;;;257.05;175.82;;;;;;;24.28;39.89;99824.84;4986949;28;20084;-43
2021/12/25 10:10:46;;;;;;;261.55;175.15;;;;;;;24.17;40.31;99835.38;5004549;28;20057;-45
2021/12/25 10:13:36;;;;;;;269.60;182.38;;;;;;;24.24;39.80;99818.72;5004617;28;20030;-44
2021/12/25 10:16:26;;;;;;;252.55;177.20;;;;;;;24.22;40.05;99823.13;5004619;28;20116;-43
2021/12/25 10:19:11;;;;;;;248.60;163.63;;;;;;;24.18;39.91;99820.50;5004296;28;20693;-44
2021/12/25 10:21:39;;;;;;;238.52;158.63;;;;;;;24.21;39.99;99829.25;5003186;28;20075;-45
2021/12/25 10:24:15;;;;;;;228.30;150.95;;;;;;;24.36;39.51;99817.78;5002945;28;20034;-44
2021/12/25 10:26:46;;;;;;;235.90;158.48;;;;;;;24.47;39.32;99825.56;5004243;28;20033;-44
2021/12/25 10:29:26;;;;;;;229.88;154.82;;;;;;;24.60;39.12;99820.22;5003984;28;20033;-44
2021/12/25 10:31:58;;;;;;;238.20;160.50;;;;;;;24.51;39.55;99824.69;5003987;28;20072;-44
2021/12/25 10:34:30;;;;;;;230.65;157.27;;;;;;;24.38;39.75;99825.66;5004097;28;20087;-44
2021/12/25 10:37:18;;;;;;;225.80;151.32;;;;;;;24.48;39.58;99824.69;5002404;28;20037;-43
2021/12/25 10:39:46;;;;;;;230.00;154.75;;;;;;;24.42;39.44;99825.59;5004088;28;21207;-43
2021/12/25 10:42:19;;;;;;;229.52;154.02;;;;;;;24.36;39.72;99823.03;5003879;28;20105;-44
2021/12/25 10:44:51;;;;;;;208.82;140.95;;;;;;;24.32;39.69;99817.81;5004193;28;20166;-44
2021/12/25 10:47:23;;;;;;;208.77;141.45;;;;;;;24.23;39.65;99816.13;5002412;28;20534;-43
2021/12/25 10:49:56;;;;;;;194.88;129.38;;;;;;;24.19;39.51;99811.78;5003943;28;20025;-44
2021/12/25 10:52:27;;;;;;;190.57;123.60;;;;;;;24.23;39.19;99814.38;5006888;28;20034;-44
2021/12/25 10:54:56;;;;;;;184.50;121.65;;;;;;;24.35;39.07;99809.94;5003743;28;20030;-44
2021/12/25 10:57:34;;;;;;;181.77;120.85;;;;;;;24.39;38.82;99815.13;5003856;28;20109;-45
2021/12/25 11:00:05;;;;;;;194.05;132.23;;;;;;;24.40;39.18;99808.16;5003687;28;20383;-44
2021/12/25 11:02:38;;;;;;;188.15;120.38;;;;;;;24.40;39.01;99818.66;5003380;28;20060;-45
2021/12/25 11:05:27;;;;;;;153.05;96.15;;;;;;;24.16;39.16;99814.44;5004056;28;20633;-44
2021/12/25 11:08:07;;;;;;;163.55;107.93;;;;;;;24.02;39.06;99804.03;5000614;28;20070;-44
2021/12/25 11:10:56;;;;;;;119.90;76.05;;;;;;;23.71;39.83;99798.91;5003460;28;20037;-44
2021/12/25 11:13:26;;;;;;;169.82;112.28;;;;;;;23.64;40.57;99791.06;5000297;28;20125;-44
2021/12/25 11:16:03;;;;;;;164.82;111.32;;;;;;;24.00;39.98;99784.81;5003658;28;20075;-43
2021/12/25 11:18:34;;;;;;;186.05;118.88;;;;;;;24.03;39.86;99788.28;5002667;28;20037;-45
2021/12/25 11:21:10;;;;;;;185.90;120.45;;;;;;;24.16;39.71;99780.38;5006998;28;20172;-44
2021/12/25 11:23:40;;;;;;;186.65;121.72;;;;;;;24.30;39.50;99780.25;5003693;28;20033;-44
2021/12/25 11:26:09;;;;;;;198.15;125.28;;;;;;;24.37;39.24;99777.56;5003608;28;20030;-44
2021/12/25 11:28:37;;;;;;;199.65;131.02;;;;;;;24.34;39.19;99785.47;5003528;28;20600;-44
2021/12/25 11:31:06;;;;;;;214.48;137.35;;;;;;;24.37;39.47;99793.31;5003446;28;20034;-44
2021/12/25 11:33:34;;;;;;;218.10;141.13;;;;;;;24.20;39.66;99779.44;5003882;28;20110;-44
2021/12/25 11:36:04;;;;;;;201.50;133.13;;;;;;;24.17;39.95;99782.09;5003533;28;20030;-43
2021/12/25 11:38:33;;;;;;;206.40;135.95;;;;;;;24.09;39.61;99777.78;5006983;28;20034;-43
2021/12/25 11:41:11;;;;;;;195.65;131.27;;;;;;;23.99;40.14;99781.34;5002838;28;20570;-43
2021/12/25 11:43:44;;;;;;;203.90;131.57;;;;;;;24.10;39.99;99778.63;5003400;28;20030;-44
2021/12/25 11:46:15;;;;;;;200.63;134.93;;;;;;;24.17;40.11;99777.72;5003737;28;20022;-43
2021/12/25 11:48:45;;;;;;;215.40;140.32;;;;;;;24.23;40.03;99784.69;5003757;28;20498;-44
2021/12/25 11:51:32;;;;;;;213.35;141.90;;;;;;;24.32;39.70;99783.75;5003492;28;20109;-44
2021/12/25 11:56:37;;;;;;;225.93;146.23;;;;;;;24.35;39.61;99776.72;5003344;28;20022;-44
2021/12/25 11:59:24;;;;;;;222.30;146.80;;;;;;;24.38;39.50;99773.22;5003459;28;20037;-44
2021/12/25 12:01:58;;;;;;;223.90;145.77;;;;;;;24.45;39.70;99774.91;5003060;28;20478;-44
2021/12/25 12:04:28;;;;;;;230.90;154.53;;;;;;;24.36;39.91;99773.22;5002929;28;20045;-44
2021/12/25 12:06:59;;;;;;;236.73;155.40;;;;;;;24.37;39.79;99774.09;5005740;28;20357;-44
2021/12/25 12:09:29;;;;;;;234.70;155.80;;;;;;;24.37;39.78;99767.09;5006759;28;20825;-44
2021/12/25 12:12:06;;;;;;;240.82;158.77;;;;;;;24.41;39.90;99768.81;5005536;28;20414;-44
2021/12/25 12:14:34;;;;;;;229.85;158.30;;;;;;;24.40;39.91;99764.47;5006605;28;20030;-44
2021/12/25 12:17:07;;;;;;;236.18;160.77;;;;;;;24.39;39.95;99762.72;5005110;28;20038;-44
2021/12/25 12:19:37;;;;;;;242.57;162.15;;;;;;;24.39;39.94;99759.25;5006660;28;20165;-45
2021/12/25 12:23:04;;;;;;;238.10;157.90;;;;;;;24.38;39.92;99760.13;5006697;28;20022;-45
2021/12/25 12:25:18;;;;;;;230.88;152.52;;;;;;;24.47;39.32;99759.19;5002639;28;20188;-46
2021/12/25 12:27:49;;;;;;;231.30;155.05;;;;;;;24.39;39.63;99762.72;5006627;28;20430;-44